createdAt,value
2018-08-04T00:01:52.943Z,61.35
2018-08-04T00:04:22.236Z,60.99
2018-08-04T00:06:51.203Z,60.40
2018-08-04T00:09:20.202Z,60.46
2018-08-04T00:11:49.484Z,60.33
2018-08-04T00:14:18.674Z,60.10
2018-08-04T00:16:48.001Z,59.48
2018-08-04T00:19:16.807Z,60.40
2018-08-04T00:21:45.870Z,59.63
2018-08-04T00:24:14.970Z,59.54
2018-08-04T00:26:44.255Z,60.33
2018-08-04T00:29:13.118Z,59.61
2018-08-04T00:31:42.151Z,59.39
2018-08-04T00:34:11.103Z,59.48
2018-08-04T00:36:40.393Z,59.64
2018-08-04T00:39:09.707Z,60.47
2018-08-04T00:41:38.834Z,59.51
2018-08-04T00:44:07.925Z,60.09
2018-08-04T00:46:37.076Z,59.35
2018-08-04T00:49:06.430Z,60.18
2018-08-04T00:51:35.274Z,59.76
2018-08-04T00:54:04.354Z,60.74
2018-08-04T00:56:33.468Z,60.65
2018-08-04T00:59:02.482Z,60.62
2018-08-04T01:01:31.638Z,60.21
2018-08-04T01:04:00.875Z,60.64
2018-08-04T01:06:29.631Z,60.67
2018-08-04T01:08:58.374Z,61.01
2018-08-04T01:11:27.598Z,60.09
2018-08-04T01:13:56.695Z,60.18
2018-08-04T01:16:25.873Z,60.96
2018-08-04T01:18:55.016Z,60.41
2018-08-04T01:21:23.850Z,61.52
2018-08-04T01:23:52.926Z,60.97
2018-08-04T01:26:22.209Z,61.50
2018-08-04T01:28:51.313Z,61.75
2018-08-04T01:31:20.509Z,61.48
2018-08-04T01:33:49.658Z,62.19
2018-08-04T01:36:18.766Z,62.61
2018-08-04T01:38:47.738Z,62.62
2018-08-04T01:41:16.793Z,62.60
2018-08-04T01:43:45.674Z,62.51
2018-08-04T01:46:14.810Z,62.18
2018-08-04T01:48:43.867Z,61.82
2018-08-04T01:51:12.686Z,61.78
2018-08-04T01:53:41.584Z,62.17
2018-08-04T01:56:10.727Z,61.92
2018-08-04T01:58:39.542Z,61.85
2018-08-04T02:01:08.516Z,61.75
2018-08-04T02:03:37.657Z,62.37
2018-08-04T02:06:06.903Z,62.29
2018-08-04T02:08:36.015Z,64.18
2018-08-04T02:11:04.785Z,63.51
2018-08-04T02:13:33.833Z,64.30
2018-08-04T02:16:02.654Z,63.74
2018-08-04T02:18:31.934Z,63.80
2018-08-04T02:21:01.055Z,64.67
2018-08-04T02:23:29.930Z,64.60
2018-08-04T02:25:58.699Z,65.37
2018-08-04T02:28:27.614Z,63.49
2018-08-04T02:30:56.766Z,63.53
2018-08-04T02:33:25.968Z,63.15
2018-08-04T02:35:55.479Z,62.87
2018-08-04T02:38:24.805Z,63.74
2018-08-04T02:40:54.099Z,63.99
2018-08-04T02:43:23.007Z,64.20
2018-08-04T02:45:52.282Z,65.01
2018-08-04T02:48:21.566Z,65.52
2018-08-04T02:50:50.686Z,66.13
2018-08-04T02:53:19.760Z,66.23
2018-08-04T02:55:48.688Z,66.62
2018-08-04T02:58:17.840Z,65.07
2018-08-04T03:00:47.064Z,65.94
2018-08-04T03:03:16.124Z,66.12
2018-08-04T03:05:45.366Z,64.87
2018-08-04T03:08:14.565Z,65.74
2018-08-04T03:10:43.771Z,67.03
2018-08-04T03:13:12.906Z,67.13
2018-08-04T03:15:42.260Z,67.52
2018-08-04T03:18:11.325Z,66.63
2018-08-04T03:20:40.487Z,66.51
2018-08-04T03:23:09.694Z,67.64
2018-08-04T03:25:38.880Z,67.84
2018-08-04T03:28:08.100Z,67.14
2018-08-04T03:30:37.302Z,66.45
2018-08-04T03:33:06.383Z,66.61
2018-08-04T03:35:35.526Z,67.61
2018-08-04T03:38:04.770Z,67.80
2018-08-04T03:40:33.906Z,68.76
2018-08-04T03:43:03.067Z,68.63
2018-08-04T03:45:32.103Z,66.84
2018-08-04T03:48:01.237Z,66.01
2018-08-04T03:50:30.268Z,66.18
2018-08-04T03:52:59.595Z,65.69
2018-08-04T03:55:28.758Z,65.41
2018-08-04T03:57:57.742Z,64.94
2018-08-04T04:00:26.821Z,64.68
2018-08-04T04:02:55.965Z,64.15
2018-08-04T04:05:24.844Z,64.66
2018-08-04T04:07:54.008Z,64.14
2018-08-04T04:10:23.246Z,64.63
2018-08-04T04:12:52.380Z,63.51
2018-08-04T04:15:21.520Z,63.90
2018-08-04T04:17:50.534Z,63.47
2018-08-04T04:20:20.555Z,63.37
2018-08-04T04:22:50.117Z,63.47
2018-08-04T04:25:19.121Z,64.64
2018-08-04T04:27:48.346Z,63.40
2018-08-04T04:30:17.580Z,63.43
2018-08-04T04:32:46.658Z,63.39
2018-08-04T04:35:15.975Z,63.78
2018-08-04T04:37:44.923Z,62.55
2018-08-04T04:40:13.914Z,63.95
2018-08-04T04:42:42.927Z,63.77
2018-08-04T04:45:12.140Z,65.85
2018-08-04T04:47:41.306Z,65.04
2018-08-04T04:50:10.493Z,64.94
2018-08-04T04:52:39.940Z,64.07
2018-08-04T04:55:08.990Z,63.60
2018-08-04T04:57:37.871Z,62.97
2018-08-04T05:00:07.084Z,63.06
2018-08-04T05:02:36.359Z,63.40
2018-08-04T05:05:06.272Z,63.04
2018-08-04T05:07:35.486Z,64.46
2018-08-04T05:10:04.362Z,63.76
2018-08-04T05:12:33.760Z,64.44
2018-08-04T05:15:02.651Z,63.42
2018-08-04T05:17:31.614Z,62.20
2018-08-04T05:20:00.766Z,61.57
2018-08-04T05:22:29.861Z,61.60
2018-08-04T05:24:58.742Z,61.14
2018-08-04T05:27:27.976Z,60.29
2018-08-04T05:29:57.214Z,59.46
2018-08-04T05:32:26.163Z,58.01
2018-08-04T05:34:55.393Z,57.90
2018-08-04T05:37:24.492Z,57.27
2018-08-04T05:39:53.897Z,57.16
2018-08-04T05:42:23.053Z,58.08
2018-08-04T05:44:51.935Z,57.49
2018-08-04T05:47:21.280Z,58.46
2018-08-04T05:49:50.157Z,59.78
2018-08-04T05:52:19.442Z,58.67
2018-08-04T05:54:48.384Z,58.69
2018-08-04T05:57:17.502Z,58.68
2018-08-04T05:59:46.767Z,58.00
2018-08-04T06:02:15.870Z,58.64
2018-08-04T06:04:44.618Z,57.93
2018-08-04T06:07:13.694Z,58.41
2018-08-04T06:09:42.687Z,58.33
2018-08-04T06:12:11.544Z,57.36
2018-08-04T06:14:40.709Z,56.27
2018-08-04T06:17:09.914Z,55.09
2018-08-04T06:19:38.726Z,55.24
2018-08-04T06:22:07.718Z,54.26
2018-08-04T06:24:36.875Z,54.24
2018-08-04T06:27:05.964Z,53.12
2018-08-04T06:29:35.286Z,52.29
2018-08-04T06:32:04.542Z,52.03
2018-08-04T06:34:33.793Z,53.19
2018-08-04T06:37:02.926Z,53.75
2018-08-04T06:39:31.938Z,52.67
2018-08-04T06:42:01.119Z,53.62
2018-08-04T06:44:30.325Z,52.17
2018-08-04T06:46:59.610Z,53.00
2018-08-04T06:49:29.084Z,51.78
2018-08-04T06:51:58.195Z,52.50
2018-08-04T06:54:27.404Z,52.58
2018-08-04T06:56:56.594Z,51.25
2018-08-04T06:59:26.014Z,52.14
2018-08-04T07:01:54.760Z,51.93
2018-08-04T07:04:23.923Z,51.51
2018-08-04T07:06:53.136Z,52.57
2018-08-04T07:09:22.430Z,51.66
2018-08-04T07:11:51.510Z,50.61
2018-08-04T07:14:20.582Z,51.34
2018-08-04T07:16:49.810Z,51.36
2018-08-04T07:19:18.910Z,50.90
2018-08-04T07:21:48.169Z,51.23
2018-08-04T07:24:17.502Z,50.81
2018-08-04T07:26:46.323Z,49.89
2018-08-04T07:29:15.068Z,49.58
2018-08-04T07:31:44.146Z,49.20
2018-08-04T07:34:13.294Z,49.35
2018-08-04T07:36:42.507Z,49.43
2018-08-04T07:39:12.024Z,47.74
2018-08-04T07:41:40.967Z,47.99
2018-08-04T07:44:10.160Z,46.31
2018-08-04T07:46:39.236Z,47.52
2018-08-04T07:49:08.357Z,46.43
2018-08-04T07:51:37.467Z,46.66
2018-08-04T07:54:06.747Z,46.56
2018-08-04T07:56:35.982Z,45.59
2018-08-04T07:59:05.174Z,45.76
2018-08-04T08:01:34.239Z,45.41
2018-08-04T08:04:02.982Z,45.31
2018-08-04T08:06:32.156Z,44.60
2018-08-04T08:09:01.018Z,45.32
2018-08-04T08:11:30.120Z,45.27
2018-08-04T08:13:59.066Z,45.67
2018-08-04T08:16:28.207Z,41.83
2018-08-04T08:18:57.114Z,43.70
2018-08-04T08:21:26.142Z,43.86
2018-08-04T08:23:55.186Z,44.29
2018-08-04T08:26:24.256Z,43.56
2018-08-04T08:28:54.269Z,42.94
2018-08-04T08:31:23.194Z,41.98
2018-08-04T08:33:52.299Z,42.10
2018-08-04T08:36:21.351Z,41.29
2018-08-04T08:38:50.384Z,41.55
2018-08-04T08:41:19.383Z,39.98
2018-08-04T08:43:48.717Z,42.21
2018-08-04T08:46:18.072Z,42.38
2018-08-04T08:48:47.371Z,41.64
2018-08-04T08:51:16.346Z,40.41
2018-08-04T08:53:45.514Z,38.68
2018-08-04T08:56:14.583Z,38.13
2018-08-04T08:58:43.693Z,39.15
2018-08-04T09:01:12.999Z,39.04
2018-08-04T09:03:42.384Z,37.51
2018-08-04T09:06:11.454Z,37.49
2018-08-04T09:08:40.575Z,35.36
2018-08-04T09:11:09.793Z,33.66
2018-08-04T09:13:39.038Z,30.37
2018-08-04T09:16:08.147Z,29.50
2018-08-04T09:18:37.585Z,28.52
2018-08-04T09:21:06.919Z,26.32
2018-08-04T09:23:35.800Z,26.00
2018-08-04T09:26:04.589Z,24.68
2018-08-04T09:28:33.571Z,22.62
2018-08-04T09:31:02.603Z,20.80
2018-08-04T09:33:31.894Z,20.57
2018-08-04T09:36:01.222Z,18.27
2018-08-04T09:38:30.495Z,18.67
2018-08-04T09:40:59.630Z,16.99
2018-08-04T09:43:28.636Z,17.14
2018-08-04T09:45:57.714Z,14.75
2018-08-04T09:48:26.874Z,16.19
2018-08-04T09:50:55.912Z,16.58
2018-08-04T09:53:25.100Z,17.65
2018-08-04T09:55:54.320Z,15.66
2018-08-04T09:58:23.427Z,13.75
2018-08-04T10:00:57.279Z,14.73
2018-08-04T10:03:26.325Z,14.62
2018-08-04T10:05:55.482Z,14.62
2018-08-04T10:08:24.594Z,13.57
2018-08-04T10:10:53.879Z,12.74
2018-08-04T10:13:23.030Z,12.83
2018-08-04T10:15:52.351Z,12.94
2018-08-04T10:18:21.615Z,14.00
2018-08-04T10:20:50.679Z,14.03
2018-08-04T10:23:19.727Z,14.27
2018-08-04T10:25:49.097Z,13.72
2018-08-04T10:28:18.194Z,12.68
2018-08-04T10:30:47.293Z,12.64
2018-08-04T10:33:16.697Z,11.18
2018-08-04T10:35:45.960Z,11.74
2018-08-04T10:38:14.998Z,13.45
2018-08-04T10:40:43.809Z,13.41
2018-08-04T10:43:12.652Z,13.71
2018-08-04T10:45:41.819Z,14.53
2018-08-04T10:48:10.994Z,13.89
2018-08-04T10:50:40.148Z,13.46
2018-08-04T10:53:10.198Z,13.48
2018-08-04T10:55:38.947Z,12.91
2018-08-04T10:58:07.723Z,12.64
2018-08-04T11:00:36.867Z,12.52
2018-08-04T11:03:05.877Z,12.31
2018-08-04T11:05:34.987Z,12.10
2018-08-04T11:08:04.130Z,13.34
2018-08-04T11:10:33.303Z,13.59
2018-08-04T11:13:02.535Z,13.01
2018-08-04T11:15:31.750Z,12.04
2018-08-04T11:18:01.240Z,11.68
2018-08-04T11:20:30.425Z,11.81
2018-08-04T11:22:59.664Z,11.78
2018-08-04T11:25:28.688Z,10.72
2018-08-04T11:27:57.791Z,10.95
2018-08-04T11:30:26.942Z,10.79
2018-08-04T11:32:55.879Z,12.03
2018-08-04T11:35:24.740Z,13.26
2018-08-04T11:37:53.799Z,13.79
2018-08-04T11:40:22.884Z,14.21
2018-08-04T11:42:52.058Z,13.94
2018-08-04T11:45:21.152Z,13.36
2018-08-04T11:47:50.394Z,14.11
2018-08-04T11:50:19.275Z,15.07
2018-08-04T11:52:48.336Z,15.04
2018-08-04T11:55:17.466Z,14.47
2018-08-04T11:57:46.486Z,14.26
2018-08-04T12:00:15.300Z,13.92
2018-08-04T12:02:44.498Z,14.02
2018-08-04T12:05:13.371Z,14.61
2018-08-04T12:07:42.478Z,13.47
2018-08-04T12:10:11.574Z,13.98
2018-08-04T12:12:40.774Z,13.40
2018-08-04T12:15:10.109Z,13.72
2018-08-04T12:17:39.264Z,13.21
2018-08-04T12:20:08.618Z,14.01
2018-08-04T12:22:37.413Z,14.45
2018-08-04T12:25:07.067Z,14.40
2018-08-04T12:27:36.247Z,13.07
2018-08-04T12:30:06.839Z,14.22
2018-08-04T12:32:35.915Z,13.85
2018-08-04T12:35:05.032Z,14.55
2018-08-04T12:37:34.096Z,14.52
2018-08-04T12:40:03.000Z,14.74
2018-08-04T12:42:32.050Z,14.58
2018-08-04T12:45:01.260Z,16.35
2018-08-04T12:47:30.602Z,17.04
2018-08-04T12:49:59.889Z,18.58
2018-08-04T12:52:29.281Z,19.65
2018-08-04T12:54:58.262Z,18.90
2018-08-04T12:57:27.424Z,19.61
2018-08-04T12:59:56.265Z,19.44
2018-08-04T13:02:25.522Z,20.18
2018-08-04T13:04:54.703Z,20.12
2018-08-04T13:07:23.815Z,19.48
2018-08-04T13:09:52.748Z,19.06
2018-08-04T13:12:21.452Z,20.25
2018-08-04T13:14:50.375Z,20.26
2018-08-04T13:17:19.664Z,21.86
2018-08-04T13:19:48.761Z,23.30
2018-08-04T13:22:17.688Z,22.52
2018-08-04T13:24:46.746Z,22.88
2018-08-04T13:27:15.547Z,23.92
2018-08-04T13:29:44.729Z,24.04
2018-08-04T13:32:14.039Z,25.96
2018-08-04T13:34:43.375Z,26.73
2018-08-04T13:37:12.578Z,28.37
2018-08-04T13:39:41.871Z,30.52
2018-08-04T13:42:11.015Z,31.91
2018-08-04T13:44:39.909Z,31.58
2018-08-04T13:47:08.770Z,31.83
2018-08-04T13:49:37.942Z,33.30
2018-08-04T13:52:07.193Z,33.03
2018-08-04T13:54:36.238Z,31.46
2018-08-04T13:57:05.339Z,31.40
2018-08-04T13:59:34.486Z,29.60
2018-08-04T14:02:03.361Z,25.78
2018-08-04T14:04:32.517Z,24.46
2018-08-04T14:07:01.550Z,24.58
2018-08-04T14:09:30.795Z,25.03
2018-08-04T14:11:59.935Z,24.89
2018-08-04T14:14:29.060Z,26.56
2018-08-04T14:16:58.000Z,26.52
2018-08-04T14:19:27.235Z,26.24
2018-08-04T14:21:56.578Z,24.97
2018-08-04T14:24:25.660Z,25.44
2018-08-04T14:26:54.779Z,26.28
2018-08-04T14:29:24.070Z,25.74
2018-08-04T14:31:52.950Z,26.11
2018-08-04T14:34:21.691Z,26.24
2018-08-04T14:36:50.610Z,26.79
2018-08-04T14:39:19.793Z,26.87
2018-08-04T14:41:48.844Z,27.66
2018-08-04T14:44:17.774Z,27.60
2018-08-04T14:46:46.749Z,27.14
2018-08-04T14:49:15.762Z,28.24
2018-08-04T14:51:44.877Z,27.90
2018-08-04T14:54:13.842Z,28.23
2018-08-04T14:56:43.083Z,27.45
2018-08-04T14:59:12.169Z,28.19
2018-08-04T15:01:41.373Z,28.92
2018-08-04T15:04:10.621Z,28.84
2018-08-04T15:06:39.699Z,28.84
2018-08-04T15:09:11.256Z,29.22
2018-08-04T15:11:40.809Z,29.92
2018-08-04T15:14:10.778Z,28.97
2018-08-04T15:16:40.028Z,29.65
2018-08-04T15:19:09.242Z,30.89
2018-08-04T15:21:38.036Z,31.53
2018-08-04T15:24:07.216Z,30.42
2018-08-04T15:26:36.410Z,29.74
2018-08-04T15:29:05.531Z,33.90
2018-08-04T15:31:34.759Z,32.25
2018-08-04T15:34:04.192Z,30.84
2018-08-04T15:36:33.494Z,31.96
2018-08-04T15:39:02.694Z,33.85
2018-08-04T15:41:31.892Z,32.00
2018-08-04T15:44:01.033Z,33.58
2018-08-04T15:46:30.130Z,35.47
2018-08-04T15:48:58.946Z,35.84
2018-08-04T15:51:28.247Z,37.93
2018-08-04T15:53:57.229Z,36.77
2018-08-04T15:56:26.018Z,35.50
2018-08-04T15:58:55.265Z,37.63
2018-08-04T16:01:24.093Z,37.53
2018-08-04T16:03:53.235Z,38.13
2018-08-04T16:06:22.325Z,40.24
2018-08-04T16:08:51.218Z,40.59
2018-08-04T16:11:20.311Z,40.98
2018-08-04T16:13:49.354Z,40.55
2018-08-04T16:16:18.736Z,41.06
2018-08-04T16:18:47.875Z,42.14
2018-08-04T16:21:17.033Z,42.63
2018-08-04T16:23:45.790Z,43.29
2018-08-04T16:26:14.682Z,42.41
2018-08-04T16:28:43.539Z,41.35
2018-08-04T16:31:12.941Z,42.49
2018-08-04T16:33:42.218Z,42.08
2018-08-04T16:36:11.433Z,43.86
2018-08-04T16:38:40.577Z,43.83
2018-08-04T16:41:09.758Z,44.65
2018-08-04T16:43:38.907Z,42.29
2018-08-04T16:46:07.942Z,42.52
2018-08-04T16:48:36.920Z,44.86
2018-08-04T16:51:05.958Z,44.45
2018-08-04T16:53:35.295Z,44.30
2018-08-04T16:56:04.251Z,44.82
2018-08-04T16:58:33.278Z,44.46
2018-08-04T17:01:02.435Z,46.99
2018-08-04T17:03:31.238Z,42.22
2018-08-04T17:06:00.479Z,44.38
2018-08-04T17:08:29.427Z,44.77
2018-08-04T17:10:58.570Z,45.56
2018-08-04T17:13:27.691Z,45.53
2018-08-04T17:15:56.914Z,47.02
2018-08-04T17:18:26.173Z,46.11
2018-08-04T17:20:55.165Z,46.31
2018-08-04T17:23:24.284Z,47.05
2018-08-04T17:25:53.442Z,47.08
2018-08-04T17:28:22.500Z,47.22
2018-08-04T17:30:51.773Z,46.61
2018-08-04T17:33:21.027Z,47.30
2018-08-04T17:35:50.069Z,47.24
2018-08-04T17:38:19.209Z,48.75
2018-08-04T17:40:48.089Z,48.33
2018-08-04T17:43:17.269Z,47.98
2018-08-04T17:45:46.386Z,48.19
2018-08-04T17:48:15.566Z,49.11
2018-08-04T17:50:44.562Z,48.76
2018-08-04T17:53:13.460Z,48.71
2018-08-04T17:55:42.532Z,49.22
2018-08-04T17:58:11.858Z,49.44
2018-08-04T18:00:41.009Z,49.42
2018-08-04T18:03:10.164Z,48.41
2018-08-04T18:05:38.901Z,47.73
2018-08-04T18:08:08.068Z,47.52
2018-08-04T18:10:37.304Z,46.59
2018-08-04T18:13:06.493Z,46.35
2018-08-04T18:15:35.726Z,44.66
2018-08-04T18:18:04.968Z,44.03
2018-08-04T18:20:33.799Z,43.95
2018-08-04T18:23:03.281Z,44.37
2018-08-04T18:25:32.526Z,43.76
2018-08-04T18:28:01.549Z,43.64
2018-08-04T18:30:31.298Z,43.71
2018-08-04T18:33:00.666Z,44.87
2018-08-04T18:35:29.753Z,44.14
2018-08-04T18:37:59.017Z,45.85
2018-08-04T18:40:27.899Z,45.76
2018-08-04T18:42:57.049Z,44.38
2018-08-04T18:45:26.390Z,44.62
2018-08-04T18:47:55.649Z,44.50
2018-08-04T18:50:24.919Z,44.28
2018-08-04T18:52:54.162Z,44.79
2018-08-04T18:55:23.567Z,44.73
2018-08-04T18:57:52.629Z,44.92
2018-08-04T19:00:21.930Z,44.57
2018-08-04T19:02:51.259Z,44.44
2018-08-04T19:05:20.130Z,43.96
2018-08-04T19:07:49.219Z,44.13
2018-08-04T19:10:18.411Z,44.13
2018-08-04T19:12:47.207Z,44.68
2018-08-04T19:15:16.180Z,44.04
2018-08-04T19:17:45.429Z,45.07
2018-08-04T19:20:14.481Z,44.99
2018-08-04T19:22:43.235Z,45.58
2018-08-04T19:25:12.405Z,45.42
2018-08-04T19:27:41.411Z,43.49
2018-08-04T19:30:10.747Z,44.27
2018-08-04T19:32:39.742Z,44.07
2018-08-04T19:35:08.837Z,44.69
2018-08-04T19:37:38.031Z,44.11
2018-08-04T19:40:07.434Z,44.24
2018-08-04T19:42:36.665Z,44.28
2018-08-04T19:45:05.504Z,45.63
2018-08-04T19:47:34.722Z,45.19
2018-08-04T19:50:03.689Z,45.42
2018-08-04T19:52:32.819Z,47.55
2018-08-04T19:55:01.899Z,47.78
2018-08-04T19:57:31.794Z,48.28
2018-08-04T20:00:00.951Z,47.91
2018-08-04T20:02:30.036Z,47.39
2018-08-04T20:04:58.851Z,49.19
2018-08-04T20:07:29.279Z,49.40
2018-08-04T20:09:58.395Z,48.58
2018-08-04T20:12:27.751Z,48.55
2018-08-04T20:14:56.892Z,51.08
2018-08-04T20:17:25.951Z,50.72
2018-08-04T20:19:55.242Z,48.46
2018-08-04T20:22:24.484Z,49.49
2018-08-04T20:24:53.717Z,50.11
2018-08-04T20:27:22.621Z,49.70
2018-08-04T20:29:51.895Z,50.96
2018-08-04T20:32:21.210Z,50.25
2018-08-04T20:34:50.434Z,49.05
2018-08-04T20:37:19.623Z,50.15
2018-08-04T20:39:48.859Z,50.78
2018-08-04T20:42:17.766Z,49.10
2018-08-04T20:44:46.881Z,49.07
2018-08-04T20:47:16.044Z,50.38
2018-08-04T20:49:45.201Z,49.70
2018-08-04T20:52:14.310Z,51.92
2018-08-04T20:54:43.637Z,50.80
2018-08-04T20:57:12.880Z,50.58
2018-08-04T20:59:41.750Z,50.33
2018-08-04T21:02:10.662Z,50.78
2018-08-04T21:04:39.758Z,51.12
2018-08-04T21:07:08.993Z,51.57
2018-08-04T21:09:38.222Z,52.61
2018-08-04T21:12:07.079Z,50.45
2018-08-04T21:14:36.228Z,51.79
2018-08-04T21:17:05.074Z,52.71
2018-08-04T21:19:34.313Z,51.99
2018-08-04T21:22:03.236Z,52.68
2018-08-04T21:24:32.504Z,51.70
2018-08-04T21:27:01.664Z,51.99
2018-08-04T21:29:31.004Z,53.76
2018-08-04T21:32:00.147Z,53.47
2018-08-04T21:34:29.151Z,53.25
2018-08-04T21:36:58.439Z,53.21
2018-08-04T21:39:27.569Z,55.00
2018-08-04T21:41:56.744Z,53.97
2018-08-04T21:44:25.958Z,53.52
2018-08-04T21:46:55.012Z,52.15
2018-08-04T21:49:24.025Z,54.13
2018-08-04T21:51:53.041Z,53.46
2018-08-04T21:54:22.286Z,55.11
2018-08-04T21:56:51.390Z,54.76
2018-08-04T21:59:20.482Z,54.86
2018-08-04T22:01:55.078Z,54.73
2018-08-04T22:04:24.097Z,54.50
2018-08-04T22:07:05.855Z,53.87
2018-08-04T22:09:35.114Z,54.16
2018-08-04T22:12:04.427Z,54.98
2018-08-04T22:14:33.718Z,55.07
2018-08-04T22:17:02.622Z,55.69
2018-08-04T22:19:31.615Z,53.53
2018-08-04T22:22:00.899Z,53.28
2018-08-04T22:24:30.159Z,55.36
2018-08-04T22:26:59.412Z,55.35
2018-08-04T22:29:28.655Z,57.06
2018-08-04T22:31:57.851Z,54.89
2018-08-04T22:34:26.947Z,56.52
2018-08-04T22:36:56.031Z,56.88
2018-08-04T22:39:25.386Z,56.71
2018-08-04T22:41:54.535Z,56.52
2018-08-04T22:44:23.665Z,57.60
2018-08-04T22:46:52.706Z,58.19
2018-08-04T22:49:21.962Z,57.83
2018-08-04T22:51:51.117Z,59.29
2018-08-04T22:54:20.351Z,58.12
2018-08-04T22:56:49.608Z,59.73
2018-08-04T22:59:18.970Z,59.48
2018-08-04T23:01:48.268Z,59.98
2018-08-04T23:04:17.571Z,60.10
2018-08-04T23:06:46.842Z,59.40
2018-08-04T23:09:16.121Z,60.26
2018-08-04T23:11:45.443Z,61.08
2018-08-04T23:14:14.483Z,60.76
2018-08-04T23:16:43.378Z,60.83
2018-08-04T23:19:12.520Z,61.37
2018-08-04T23:21:41.793Z,61.00
2018-08-04T23:24:11.043Z,61.55
2018-08-04T23:26:40.285Z,62.50
2018-08-04T23:29:09.643Z,62.25
2018-08-04T23:31:38.865Z,59.93
2018-08-04T23:34:07.999Z,59.95
2018-08-04T23:36:37.171Z,59.69
2018-08-04T23:39:08.244Z,59.35
2018-08-04T23:41:37.558Z,59.40
2018-08-04T23:44:06.594Z,60.62
2018-08-04T23:46:35.791Z,60.09
2018-08-04T23:49:04.856Z,60.41
2018-08-04T23:51:33.891Z,61.14
2018-08-04T23:54:02.969Z,61.79
2018-08-04T23:56:32.210Z,61.99
2018-08-04T23:59:01.179Z,61.72
